Time;durP1;ratioP1;P1;durP2;ratioP2;P2;SDS_P1;SDS_P2;PMS_P1;PMS_P2;Temp;Humidity;BMP_temperature;BMP_pressure;BME280_temperature;BME280_humidity;BME280_pressure;Samples;Min_cycle;Max_cycle;Signal;HPM_P1;HPM_P2
2024/01/31 00:01:38;;;;;;;1.92;1.42;;;;;;;14.32;39.30;101497.81;7398670;19;20020;-51
2024/01/31 00:04:04;;;;;;;1.05;0.95;;;;;;;14.06;39.61;101507.63;7398227;19;20300;-51
2024/01/31 00:06:30;;;;;;;1.40;1.30;;;;;;;14.05;39.60;101503.28;7397835;19;20470;-51
2024/01/31 00:08:57;;;;;;;5.40;2.25;;;;;;;15.15;38.25;101497.50;7398059;19;20470;-51
2024/01/31 00:11:28;;;;;;;1.88;1.77;;;;;;;13.48;40.04;101490.63;7398111;19;20034;-51
2024/01/31 00:13:55;;;;;;;;;;;;;;;12.85;41.63;101476.88;7400282;19;20027;-51
2024/01/31 00:16:21;;;;;;;11.13;1.88;;;;;;;12.49;42.46;101482.09;7395489;19;20591;-51
2024/01/31 00:18:48;;;;;;;2.05;1.95;;;;;;;12.74;42.20;101473.66;7398654;19;20014;-51
2024/01/31 00:21:14;;;;;;;16.80;1.77;;;;;;;13.87;40.47;101472.34;7395891;19;20031;-51
2024/01/31 00:23:40;;;;;;;1.38;0.75;;;;;;;13.95;39.68;101473.63;7394954;19;20026;-51
2024/01/31 00:26:06;;;;;;;1.35;1.25;;;;;;;13.21;40.81;101446.44;7397808;19;20010;-51
2024/01/31 00:28:33;;;;;;;5.70;1.63;;;;;;;12.51;42.29;101430.13;7395582;19;20015;-51
2024/01/31 00:30:59;;;;;;;1.98;1.83;;;;;;;12.67;41.59;101404.00;7393674;19;20018;-51
2024/01/31 00:33:25;;;;;;;2.25;1.83;;;;;;;14.60;38.79;101401.31;7394041;19;20033;-51
2024/01/31 00:35:52;;;;;;;7.47;2.28;;;;;;;14.59;39.12;101396.19;7394955;19;20015;-51
2024/01/31 00:38:18;;;;;;;4.82;2.13;;;;;;;16.49;35.83;101395.66;7395392;19;20021;-51
2024/01/31 00:40:44;;;;;;;4.03;1.50;;;;;;;15.33;37.75;101404.09;7396927;19;20037;-51
2024/01/31 00:43:10;;;;;;;1.45;1.35;;;;;;;16.20;36.52;101396.28;7397150;19;20473;-51
2024/01/31 00:45:36;;;;;;;1.20;1.17;;;;;;;16.48;35.97;101399.75;7396796;19;20010;-53
2024/01/31 00:48:03;;;;;;;2.92;1.20;;;;;;;16.15;36.38;101407.44;7397652;19;20011;-51
2024/01/31 00:50:29;;;;;;;0.52;0.52;;;;;;;16.08;36.37;101399.34;7400426;19;20106;-51
2024/01/31 00:52:55;;;;;;;1.20;1.20;;;;;;;15.95;36.42;101399.56;7395656;19;20045;-51
2024/01/31 00:55:22;;;;;;;0.98;0.88;;;;;;;15.36;36.82;101411.56;7397394;19;20013;-51
2024/01/31 00:57:49;;;;;;;6.25;1.35;;;;;;;14.04;39.14;101415.66;7396619;19;20015;-51
2024/01/31 01:00:15;;;;;;;1.00;1.00;;;;;;;14.66;38.07;101413.47;7394770;19;20010;-51
2024/01/31 01:02:41;;;;;;;1.77;1.35;;;;;;;17.06;35.02;101410.41;7397865;19;20015;-51
2024/01/31 01:05:09;;;;;;;7.45;1.60;;;;;;;16.47;35.71;101415.81;7396437;19;20014;-51
2024/01/31 01:07:39;;;;;;;3.03;1.50;;;;;;;16.36;36.04;101415.59;7396680;19;20416;-51
2024/01/31 01:10:15;;;;;;;3.25;1.88;;;;;;;16.46;35.67;101408.63;7394484;19;20006;-51
2024/01/31 01:12:42;;;;;;;2.42;1.17;;;;;;;14.82;37.40;101418.00;7395338;19;20066;-51
2024/01/31 01:15:08;;;;;;;6.55;1.70;;;;;;;16.82;35.63;101404.03;7399130;19;20045;-51
2024/01/31 01:17:35;;;;;;;1.58;0.90;;;;;;;18.56;33.36;101391.84;7395092;19;20011;-51
2024/01/31 01:20:01;;;;;;;2.47;1.20;;;;;;;18.93;33.03;101394.84;7395909;19;20006;-51
2024/01/31 01:22:27;;;;;;;1.42;1.20;;;;;;;18.78;33.04;101391.34;7395474;19;20347;-51
2024/01/31 01:24:54;;;;;;;1.95;1.13;;;;;;;15.32;36.44;101397.69;7394767;19;20017;-51
2024/01/31 01:27:20;;;;;;;1.20;1.20;;;;;;;14.69;37.54;101395.72;7395694;19;20019;-51
2024/01/31 01:29:46;;;;;;;3.83;2.35;;;;;;;14.32;37.83;101380.09;7397466;19;20384;-52
2024/01/31 01:32:12;;;;;;;1.10;1.10;;;;;;;13.62;38.89;101390.09;7395772;19;20006;-52
2024/01/31 01:34:41;;;;;;;1.02;1.00;;;;;;;14.08;38.65;101391.06;7392867;19;20014;-51
2024/01/31 01:37:08;;;;;;;0.60;0.60;;;;;;;14.56;38.02;101389.47;7393791;19;20015;-51
2024/01/31 01:39:35;;;;;;;1.02;0.98;;;;;;;14.88;37.58;101386.06;7393173;19;20031;-51
2024/01/31 01:42:02;;;;;;;2.17;1.75;;;;;;;14.20;38.52;101392.97;7394636;19;20015;-51
2024/01/31 01:44:33;;;;;;;0.45;0.45;;;;;;;14.21;38.61;101379.72;7394841;19;20082;-51
2024/01/31 01:47:00;;;;;;;;;;;;;;;14.19;38.37;101376.63;7395512;19;20371;-51
2024/01/31 01:49:26;;;;;;;2.28;1.75;;;;;;;14.14;38.47;101371.63;7398138;19;19922;-51
2024/01/31 01:51:54;;;;;;;2.42;2.10;;;;;;;13.95;38.78;101378.41;7394056;19;20017;-51
2024/01/31 01:54:21;;;;;;;2.45;1.50;;;;;;;13.78;38.95;101374.31;7392338;19;20363;-51
2024/01/31 01:56:49;;;;;;;11.43;1.45;;;;;;;13.81;39.02;101384.59;7394882;19;20019;-51
2024/01/31 01:59:16;;;;;;;7.43;1.17;;;;;;;14.19;38.42;101385.03;7397172;19;20010;-51
2024/01/31 02:01:43;;;;;;;2.80;1.25;;;;;;;14.39;38.10;101385.41;7393675;19;20039;-51
2024/01/31 02:04:09;;;;;;;0.88;0.88;;;;;;;14.82;37.46;101371.09;7394002;19;20010;-51
2024/01/31 02:06:35;;;;;;;0.98;0.57;;;;;;;14.21;38.10;101379.72;7394061;19;20025;-52
2024/01/31 02:09:03;;;;;;;0.68;0.52;;;;;;;14.37;38.19;101379.50;7396098;19;20033;-52
2024/01/31 02:11:32;;;;;;;2.00;0.98;;;;;;;14.50;38.30;101377.34;7392582;19;20014;-51
2024/01/31 02:14:02;;;;;;;1.05;1.05;;;;;;;15.38;37.37;101367.75;7391745;19;20014;-51
2024/01/31 02:16:28;;;;;;;2.38;1.05;;;;;;;14.98;37.23;101370.78;7393895;19;20018;-51
2024/01/31 02:18:54;;;;;;;0.88;0.77;;;;;;;14.72;37.35;101361.16;7395821;19;20011;-51
2024/01/31 02:21:24;;;;;;;1.75;1.38;;;;;;;14.84;37.08;101348.97;7393193;19;20490;-51
2024/01/31 02:23:50;;;;;;;1.10;0.68;;;;;;;14.80;37.31;101344.78;7393451;19;20367;-52
2024/01/31 02:26:16;;;;;;;4.28;1.25;;;;;;;14.89;37.14;101342.75;7394022;19;20014;-51
2024/01/31 02:28:42;;;;;;;11.02;2.50;;;;;;;14.94;37.03;101342.09;7395316;19;20521;-52
2024/01/31 02:31:08;;;;;;;3.13;0.88;;;;;;;14.91;37.51;101342.28;7393045;19;20021;-52
2024/01/31 02:33:34;;;;;;;0.47;0.47;;;;;;;14.25;37.68;101335.56;7391981;19;20211;-52
2024/01/31 02:36:01;;;;;;;2.10;0.93;;;;;;;14.21;37.99;101332.88;7390708;19;20019;-52
2024/01/31 02:38:27;;;;;;;1.02;0.93;;;;;;;13.99;38.21;101323.81;7394475;19;20018;-52
2024/01/31 02:40:53;;;;;;;0.75;0.73;;;;;;;14.12;38.30;101321.66;7392785;19;20478;-52
2024/01/31 02:43:19;;;;;;;8.85;1.67;;;;;;;13.52;38.66;101317.75;7392733;19;20032;-51
2024/01/31 02:45:45;;;;;;;6.55;2.35;;;;;;;13.94;38.20;101315.25;7392324;19;20455;-52
2024/01/31 02:48:11;;;;;;;0.88;0.88;;;;;;;14.91;36.92;101319.81;7393047;19;20010;-52
2024/01/31 02:50:38;;;;;;;1.95;1.02;;;;;;;14.61;37.16;101324.38;7399368;19;20018;-52
2024/01/31 02:53:04;;;;;;;2.55;0.80;;;;;;;15.18;36.69;101316.97;7399401;19;20466;-52
2024/01/31 02:55:30;;;;;;;3.75;1.48;;;;;;;15.76;35.50;101319.44;7400291;19;20454;-52
2024/01/31 02:57:56;;;;;;;0.77;0.68;;;;;;;16.15;35.43;101325.91;7400633;19;20014;-52
2024/01/31 03:00:23;;;;;;;0.88;0.70;;;;;;;16.04;35.45;101328.47;7400205;19;20011;-52
2024/01/31 03:02:49;;;;;;;2.60;0.63;;;;;;;16.03;35.27;101330.50;7400016;19;20007;-52
2024/01/31 03:05:15;;;;;;;1.10;1.10;;;;;;;16.00;35.03;101325.84;7399456;19;20033;-52
2024/01/31 03:07:41;;;;;;;0.40;0.40;;;;;;;16.00;35.20;101325.84;7400000;19;20014;-52
2024/01/31 03:10:09;;;;;;;1.17;1.17;;;;;;;15.85;35.27;101330.63;7399499;19;20021;-52
2024/01/31 03:12:35;;;;;;;3.35;1.38;;;;;;;15.92;35.09;101322.59;7398844;19;20014;-52
2024/01/31 03:15:02;;;;;;;0.73;0.73;;;;;;;15.98;34.88;101322.75;7399376;19;20017;-52
2024/01/31 03:17:35;;;;;;;1.67;1.10;;;;;;;15.15;35.94;101320.72;7400295;19;20086;-52
2024/01/31 03:20:05;;;;;;;0.30;0.30;;;;;;;16.28;34.75;101327.22;7398860;19;20538;-52
2024/01/31 03:22:32;;;;;;;2.45;1.23;;;;;;;15.23;35.96;101316.31;7398780;19;20019;-52
2024/01/31 03:24:58;;;;;;;2.55;1.48;;;;;;;16.08;34.98;101310.19;7399471;19;20011;-52
2024/01/31 03:27:24;;;;;;;0.63;0.55;;;;;;;15.61;35.31;101310.94;7399091;19;20336;-52
2024/01/31 03:29:50;;;;;;;1.33;0.82;;;;;;;15.67;35.41;101308.22;7403424;19;20047;-52
2024/01/31 03:32:16;;;;;;;2.88;0.77;;;;;;;16.60;34.14;101308.72;7398758;19;20092;-52
2024/01/31 03:34:42;;;;;;;1.00;1.00;;;;;;;16.82;33.80;101294.31;7397313;19;21162;-52
2024/01/31 03:37:08;;;;;;;0.47;0.47;;;;;;;16.42;34.39;101295.56;7398950;19;20021;-52
2024/01/31 03:39:34;;;;;;;0.30;0.30;;;;;;;16.32;34.48;101285.66;7402516;19;20028;-52
2024/01/31 03:42:00;;;;;;;0.82;0.75;;;;;;;17.97;32.66;101274.91;7398219;19;20007;-52
2024/01/31 03:44:27;;;;;;;0.65;0.65;;;;;;;17.77;32.55;101289.75;7399350;19;20026;-52
2024/01/31 03:46:53;;;;;;;2.15;0.85;;;;;;;16.49;33.90;101278.31;7398313;19;20017;-52
2024/01/31 03:49:19;;;;;;;10.13;1.58;;;;;;;16.06;34.28;101283.81;7401787;19;20511;-52
2024/01/31 03:51:45;;;;;;;1.95;1.58;;;;;;;15.46;35.30;101281.19;7396066;19;20378;-52
2024/01/31 03:54:12;;;;;;;0.73;0.73;;;;;;;14.99;35.85;101273.34;7398814;19;20010;-52
2024/01/31 03:56:38;;;;;;;10.48;2.05;;;;;;;15.14;35.57;101277.06;7398143;19;20010;-52
2024/01/31 03:59:04;;;;;;;4.00;1.23;;;;;;;14.54;36.16;101288.25;7400435;19;20104;-52
2024/01/31 04:01:30;;;;;;;0.30;0.30;;;;;;;14.47;36.65;101291.34;7396690;19;20019;-52
2024/01/31 04:03:56;;;;;;;0.50;0.50;;;;;;;14.44;36.74;101297.91;7396709;19;20010;-52
2024/01/31 04:06:22;;;;;;;0.82;0.82;;;;;;;14.61;36.38;101306.78;7397304;19;20038;-52
2024/01/31 04:08:49;;;;;;;0.90;0.90;;;;;;;14.38;36.97;101302.56;7400324;19;20010;-52
2024/01/31 04:11:15;;;;;;;0.40;0.40;;;;;;;14.51;36.67;101310.84;7398435;19;20011;-52
2024/01/31 04:13:44;;;;;;;2.17;1.35;;;;;;;15.19;35.70;101302.47;7396287;19;20074;-52
2024/01/31 04:16:15;;;;;;;2.58;2.05;;;;;;;15.30;35.70;101292.75;7396412;19;20017;-52
2024/01/31 04:18:41;;;;;;;3.45;1.17;;;;;;;14.35;36.49;101300.69;7397632;19;20011;-52
2024/01/31 04:21:07;;;;;;;0.47;0.47;;;;;;;14.08;37.12;101297.84;7395893;19;20481;-52
2024/01/31 04:23:34;;;;;;;1.55;0.70;;;;;;;13.55;37.44;101288.84;7397259;19;20011;-52
2024/01/31 04:26:01;;;;;;;1.73;1.58;;;;;;;13.75;37.13;101280.03;7393776;19;20451;-52
2024/01/31 04:28:27;;;;;;;0.75;0.73;;;;;;;13.53;36.93;101268.94;7399400;19;20462;-52
2024/01/31 04:30:53;;;;;;;14.80;1.17;;;;;;;12.37;39.14;101279.72;7396472;19;20041;-52
2024/01/31 04:33:22;;;;;;;0.20;0.20;;;;;;;11.90;39.95;101265.03;7396564;19;20011;-52
2024/01/31 04:35:50;;;;;;;2.33;0.88;;;;;;;11.56;40.86;101260.16;7397477;19;20121;-52
2024/01/31 04:38:16;;;;;;;10.75;1.10;;;;;;;11.95;40.43;101259.63;7398401;19;20022;-52
2024/01/31 04:40:43;;;;;;;1.00;0.82;;;;;;;12.89;38.96;101249.03;7397044;19;20779;-52
2024/01/31 04:43:10;;;;;;;4.05;1.60;;;;;;;13.37;38.62;101244.78;7396724;19;20014;-52
2024/01/31 04:45:36;;;;;;;0.40;0.40;;;;;;;13.71;37.76;101235.38;7397121;19;20011;-52
2024/01/31 04:48:02;;;;;;;2.42;1.02;;;;;;;13.58;37.99;101238.31;7397801;19;20665;-52
2024/01/31 04:50:28;;;;;;;0.75;0.75;;;;;;;13.89;37.88;101229.03;7396276;19;20010;-52
2024/01/31 04:52:54;;;;;;;0.40;0.40;;;;;;;13.92;37.72;101223.28;7396112;19;20349;-52
2024/01/31 04:55:20;;;;;;;1.30;1.20;;;;;;;14.01;38.17;101228.13;7394764;19;20021;-52
2024/01/31 04:57:46;;;;;;;2.05;0.93;;;;;;;15.28;36.94;101225.09;7395401;19;20347;-52
2024/01/31 05:00:16;;;;;;;0.93;0.77;;;;;;;16.31;36.05;101227.06;7394059;19;20086;-52
2024/01/31 05:02:42;;;;;;;1.10;0.65;;;;;;;15.17;36.60;101208.78;7400465;19;20036;-52
2024/01/31 05:05:08;;;;;;;0.77;0.68;;;;;;;15.28;37.69;101211.06;7396745;19;20045;-52
2024/01/31 05:07:34;;;;;;;1.95;1.45;;;;;;;15.44;37.19;101202.28;7396741;19;20090;-52
2024/01/31 05:10:00;;;;;;;0.75;0.73;;;;;;;16.72;35.51;101183.13;7395697;19;20465;-52
2024/01/31 05:12:26;;;;;;;0.70;0.57;;;;;;;15.49;36.62;101187.56;7393955;19;20387;-52
2024/01/31 05:14:52;;;;;;;2.40;1.15;;;;;;;15.03;37.43;101187.78;7393506;19;20011;-52
2024/01/31 05:17:19;;;;;;;0.28;0.28;;;;;;;13.70;39.08;101177.84;7395623;19;20025;-52
2024/01/31 05:19:45;;;;;;;1.20;0.80;;;;;;;13.38;39.62;101184.75;7399391;19;20033;-52
2024/01/31 05:22:11;;;;;;;1.65;0.40;;;;;;;14.64;37.79;101182.47;7395354;19;20473;-52
2024/01/31 05:24:37;;;;;;;0.57;0.57;;;;;;;13.95;38.99;101179.56;7394185;19;20015;-52
2024/01/31 05:27:04;;;;;;;9.02;2.25;;;;;;;15.75;36.88;101180.22;7395675;19;20010;-51
2024/01/31 05:29:30;;;;;;;2.83;1.17;;;;;;;15.47;36.84;101176.03;7398054;19;20018;-52
2024/01/31 05:31:56;;;;;;;0.80;0.70;;;;;;;15.48;37.02;101172.78;7395876;19;20066;-52
2024/01/31 05:34:22;;;;;;;0.80;0.80;;;;;;;15.66;37.31;101172.63;7393935;19;20070;-51
2024/01/31 05:36:49;;;;;;;3.15;0.95;;;;;;;16.29;36.70;101167.75;7395046;19;20106;-52
2024/01/31 05:39:15;;;;;;;0.15;0.15;;;;;;;16.54;36.39;101173.63;7393994;19;20062;-52
2024/01/31 05:41:42;;;;;;;0.40;0.40;;;;;;;16.06;37.20;101177.81;7395156;19;20463;-52
2024/01/31 05:44:09;;;;;;;1.45;0.68;;;;;;;16.14;37.05;101173.34;7394339;19;20022;-51
2024/01/31 05:46:36;;;;;;;0.60;0.60;;;;;;;16.04;37.59;101179.53;7395208;19;20371;-52
2024/01/31 05:49:02;;;;;;;1.55;0.73;;;;;;;15.83;37.87;101162.53;7397299;19;20011;-52
2024/01/31 05:51:29;;;;;;;5.30;1.67;;;;;;;16.78;36.95;101153.03;7393337;19;20011;-51
2024/01/31 05:53:55;;;;;;;1.58;0.47;;;;;;;16.70;37.01;101147.03;7393186;19;20017;-52
2024/01/31 05:56:21;;;;;;;1.45;0.50;;;;;;;16.18;38.19;101150.66;7395046;19;20015;-51
2024/01/31 05:58:48;;;;;;;3.40;0.75;;;;;;;16.22;38.44;101145.66;7394081;19;20018;-52
2024/01/31 06:01:14;;;;;;;0.47;0.47;;;;;;;16.33;38.42;101141.00;7392934;19;20011;-51
2024/01/31 06:03:40;;;;;;;1.42;0.47;;;;;;;16.10;38.94;101138.25;7393796;19;20010;-51
2024/01/31 06:06:06;;;;;;;7.53;0.85;;;;;;;17.18;37.85;101122.19;7394259;19;20019;-51
2024/01/31 06:08:33;;;;;;;0.50;0.50;;;;;;;17.44;37.63;101118.19;7393878;19;20015;-51
2024/01/31 06:11:08;;;;;;;0.38;0.38;;;;;;;18.08;36.89;101105.91;7398863;19;20015;-51
2024/01/31 06:13:34;;;;;;;4.18;0.68;;;;;;;18.45;36.26;101106.03;7393121;19;20458;-51
2024/01/31 06:16:02;;;;;;;0.30;0.30;;;;;;;21.35;33.63;101095.81;7394437;19;20361;-51
2024/01/31 06:18:32;;;;;;;0.20;0.20;;;;;;;24.19;30.20;101092.75;7395348;19;20018;-51
2024/01/31 06:20:58;;;;;;;1.05;0.65;;;;;;;24.94;29.24;101091.22;7393720;19;20006;-51
2024/01/31 06:23:26;;;;;;;0.30;0.30;;;;;;;25.28;28.85;101092.13;7393485;19;20019;-51
2024/01/31 06:25:52;;;;;;;0.88;0.80;;;;;;;25.49;28.64;101092.25;7393719;19;20010;-51
2024/01/31 06:28:18;;;;;;;1.45;1.23;;;;;;;25.67;28.64;101087.72;7394478;19;20014;-51
2024/01/31 06:30:45;;;;;;;0.50;0.20;;;;;;;26.29;28.23;101085.81;7392978;19;20031;-51
2024/01/31 06:33:12;;;;;;;2.55;0.70;;;;;;;26.50;27.66;101088.66;7396656;19;20018;-51
2024/01/31 06:35:41;;;;;;;0.90;0.90;;;;;;;22.83;30.70;101092.56;7392733;19;20022;-51
2024/01/31 06:38:08;;;;;;;2.65;0.88;;;;;;;21.46;31.80;101085.19;7392163;19;20021;-51
2024/01/31 06:40:35;;;;;;;0.32;0.28;;;;;;;20.94;32.83;101090.72;7392989;19;20010;-51
2024/01/31 06:43:01;;;;;;;0.85;0.85;;;;;;;20.66;33.11;101095.66;7395958;19;20019;-51
2024/01/31 06:45:30;;;;;;;0.50;0.50;;;;;;;20.95;32.49;101094.34;7390810;19;20530;-51
2024/01/31 06:47:56;;;;;;;1.70;1.00;;;;;;;21.42;31.91;101104.53;7391835;19;20018;-51
2024/01/31 06:50:22;;;;;;;0.38;0.38;;;;;;;21.23;32.12;101086.56;7391456;19;20014;-51
2024/01/31 06:52:49;;;;;;;0.10;0.10;;;;;;;21.17;32.65;101087.88;7391128;19;20015;-51
2024/01/31 06:55:15;;;;;;;0.57;0.55;;;;;;;20.69;32.89;101093.84;7392736;19;20493;-51
2024/01/31 06:57:42;;;;;;;2.22;1.10;;;;;;;20.92;32.60;101090.47;7393794;19;20015;-52
2024/01/31 07:00:12;;;;;;;0.70;0.70;;;;;;;20.91;32.80;101103.09;7392992;19;20066;-51
2024/01/31 07:02:39;;;;;;;3.30;0.75;;;;;;;21.74;32.16;101102.09;7393707;19;20010;-51
2024/01/31 07:05:05;;;;;;;0.70;0.52;;;;;;;21.88;31.88;101106.69;7392468;19;20078;-51
2024/01/31 07:07:32;;;;;;;0.30;0.30;;;;;;;21.97;31.81;101097.88;7391734;19;20018;-51
2024/01/31 07:09:59;;;;;;;0.45;0.45;;;;;;;21.75;31.80;101095.13;7391906;19;20007;-51
2024/01/31 07:12:25;;;;;;;0.10;0.10;;;;;;;21.98;31.34;101087.28;7392752;19;20096;-51
2024/01/31 07:14:51;;;;;;;0.40;0.40;;;;;;;21.60;31.96;101092.63;7394668;19;20034;-51
2024/01/31 07:17:17;;;;;;;1.33;0.45;;;;;;;21.07;32.19;101090.22;7392038;19;20037;-51
2024/01/31 07:19:43;;;;;;;1.42;1.02;;;;;;;19.66;33.93;101078.53;7395305;19;20355;-51
2024/01/31 07:22:09;;;;;;;3.78;0.82;;;;;;;19.55;34.39;101072.84;7391571;19;20082;-51
2024/01/31 07:24:36;;;;;;;5.82;0.43;;;;;;;19.40;34.51;101060.19;7391631;19;20007;-51
2024/01/31 07:27:02;;;;;;;1.25;1.15;;;;;;;19.20;35.06;101058.28;7395897;19;20337;-51
2024/01/31 07:29:29;;;;;;;0.52;0.45;;;;;;;18.65;35.55;101057.94;7394380;19;20010;-51
2024/01/31 07:31:55;;;;;;;0.20;0.20;;;;;;;19.44;34.56;101055.84;7392074;19;20028;-51
2024/01/31 07:34:22;;;;;;;0.55;0.55;;;;;;;19.66;34.72;101058.72;7388671;19;20029;-51
2024/01/31 07:36:48;;;;;;;1.38;0.63;;;;;;;19.74;34.40;101046.94;7394774;19;20042;-51
2024/01/31 07:39:14;;;;;;;1.38;1.13;;;;;;;19.78;34.27;101038.97;7402424;19;20010;-51
2024/01/31 07:41:44;;;;;;;0.20;0.20;;;;;;;19.90;34.52;101037.72;7399347;19;20006;-51
2024/01/31 07:44:10;;;;;;;0.47;0.47;;;;;;;20.11;34.03;101033.38;7398665;19;20021;-51
2024/01/31 07:46:36;;;;;;;0.40;0.40;;;;;;;19.99;34.12;101034.66;7398556;19;20435;-51
2024/01/31 07:49:06;;;;;;;0.25;0.25;;;;;;;19.60;34.68;101024.03;7400633;19;20485;-51
2024/01/31 07:51:40;;;;;;;0.80;0.80;;;;;;;19.53;34.67;101016.03;7398336;19;20465;-51
2024/01/31 07:54:06;;;;;;;0.30;0.30;;;;;;;19.66;34.70;101007.09;7396736;19;20466;-51
2024/01/31 07:56:32;;;;;;;0.50;0.20;;;;;;;18.70;36.06;101000.78;7402403;19;20036;-51
2024/01/31 07:58:58;;;;;;;0.47;0.47;;;;;;;18.70;36.06;100997.94;7397445;19;20454;-51
2024/01/31 08:01:24;;;;;;;0.38;0.38;;;;;;;19.16;35.53;100989.97;7400665;19;20022;-51
2024/01/31 08:03:50;;;;;;;0.20;0.20;;;;;;;20.04;34.73;100994.28;7397880;19;20051;-51
2024/01/31 08:06:16;;;;;;;1.08;0.45;;;;;;;20.07;34.62;100988.38;7398289;19;20011;-51
2024/01/31 08:08:45;;;;;;;1.98;0.73;;;;;;;21.87;32.86;100969.75;7398210;19;20074;-51
2024/01/31 08:11:12;;;;;;;0.30;0.30;;;;;;;20.70;33.81;100971.63;7397771;19;20015;-51
2024/01/31 08:13:41;;;;;;;5.65;0.40;;;;;;;20.68;33.78;100979.84;7399588;19;20029;-51
2024/01/31 08:16:07;;;;;;;0.52;0.52;;;;;;;20.92;33.73;100976.44;7397797;19;20041;-51
2024/01/31 08:18:34;;;;;;;3.70;1.40;;;;;;;20.57;34.03;100979.88;7399770;19;20017;-51
2024/01/31 08:21:00;;;;;;;0.40;0.28;;;;;;;20.33;34.13;100988.16;7398086;19;20038;-51
2024/01/31 08:23:26;;;;;;;0.80;0.40;;;;;;;21.74;32.77;100977.31;7399763;19;20015;-51
2024/01/31 08:25:52;;;;;;;3.85;0.63;;;;;;;21.61;32.56;100980.72;7400537;19;20014;-51
2024/01/31 08:28:19;;;;;;;0.20;0.20;;;;;;;22.22;32.12;100977.47;7401250;19;20043;-51
2024/01/31 08:30:45;;;;;;;0.32;0.30;;;;;;;22.14;32.45;100972.91;7401505;19;20038;-51
2024/01/31 08:33:11;;;;;;;0.70;0.57;;;;;;;22.29;32.50;100976.09;7399997;19;20015;-51
2024/01/31 08:35:37;;;;;;;1.13;1.13;;;;;;;22.58;31.72;100969.63;7397185;19;20011;-51
2024/01/31 08:38:03;;;;;;;0.77;0.77;;;;;;;21.54;32.78;100969.97;7399567;19;20018;-51
2024/01/31 08:40:29;;;;;;;0.20;0.20;;;;;;;21.17;33.67;100966.03;7396918;19;20070;-51
2024/01/31 08:42:58;;;;;;;0.57;0.57;;;;;;;21.04;33.62;100961.75;7396348;19;20038;-51
2024/01/31 08:45:25;;;;;;;1.05;0.47;;;;;;;22.00;32.70;100954.97;7396442;19;20531;-51
2024/01/31 08:47:51;;;;;;;0.40;0.30;;;;;;;21.98;32.73;100951.13;7398703;19;20014;-51
2024/01/31 08:50:17;;;;;;;0.70;0.65;;;;;;;23.31;31.23;100944.75;7400916;19;20010;-51
2024/01/31 08:52:43;;;;;;;2.22;0.82;;;;;;;23.23;31.20;100943.81;7400557;19;20014;-51
2024/01/31 08:55:12;;;;;;;2.00;0.52;;;;;;;22.07;32.33;100936.59;7399837;19;20482;-51
2024/01/31 08:57:38;;;;;;;1.95;1.20;;;;;;;21.58;33.13;100941.34;7400814;19;20015;-51
2024/01/31 09:00:06;;;;;;;0.50;0.50;;;;;;;21.79;32.82;100939.63;7398380;19;20073;-51
2024/01/31 09:02:32;;;;;;;0.30;0.25;;;;;;;20.17;34.34;100944.41;7398610;19;20017;-51
2024/01/31 09:04:59;;;;;;;0.38;0.38;;;;;;;19.02;36.21;100968.34;7399866;19;20483;-51
2024/01/31 09:07:25;;;;;;;1.15;0.77;;;;;;;19.14;36.03;100978.41;7399679;19;20471;-51
2024/01/31 09:09:51;;;;;;;1.40;0.73;;;;;;;19.64;35.71;100967.28;7399944;19;20033;-51
2024/01/31 09:12:17;;;;;;;0.28;0.28;;;;;;;18.72;36.50;100967.19;7400496;19;20006;-51
2024/01/31 09:14:43;;;;;;;0.40;0.40;;;;;;;18.46;37.25;100964.47;7394433;19;20017;-51
2024/01/31 09:17:10;;;;;;;3.65;1.67;;;;;;;18.73;36.97;100968.72;7394269;19;20103;-51
2024/01/31 09:19:36;;;;;;;0.68;0.68;;;;;;;18.37;37.83;100970.25;7397831;19;20351;-51
2024/01/31 09:22:02;;;;;;;0.40;0.40;;;;;;;19.16;36.49;100967.38;7396428;19;20045;-52
2024/01/31 09:24:28;;;;;;;1.00;0.57;;;;;;;19.23;36.54;100960.47;7392619;19;20349;-51
2024/01/31 09:26:54;;;;;;;7.13;0.80;;;;;;;19.11;36.84;100951.19;7394346;19;20034;-51
2024/01/31 09:29:20;;;;;;;0.68;0.68;;;;;;;18.87;37.10;100962.13;7395969;19;20104;-51
2024/01/31 09:31:47;;;;;;;0.30;0.30;;;;;;;18.66;37.19;100958.69;7395130;19;20018;-51
2024/01/31 09:34:13;;;;;;;1.08;0.85;;;;;;;20.55;35.44;100945.66;7397255;19;20039;-51
2024/01/31 09:36:40;;;;;;;3.38;1.05;;;;;;;20.95;34.59;100942.16;7393746;19;20010;-51
2024/01/31 09:39:07;;;;;;;1.85;1.38;;;;;;;21.48;34.38;100937.28;7395591;19;20014;-51
2024/01/31 09:41:33;;;;;;;0.45;0.45;;;;;;;19.20;36.76;100939.66;7395466;19;20014;-51
2024/01/31 09:43:59;;;;;;;0.35;0.35;;;;;;;19.17;37.29;100940.66;7395325;19;20007;-51
2024/01/31 09:46:25;;;;;;;0.60;0.60;;;;;;;19.01;37.53;100926.50;7396110;19;20011;-52
2024/01/31 09:48:52;;;;;;;0.40;0.25;;;;;;;19.15;37.08;100912.16;7396187;19;20483;-52
2024/01/31 09:51:19;;;;;;;19.85;1.17;;;;;;;18.23;38.34;100914.81;7395789;19;20046;-51
2024/01/31 09:53:51;;;;;;;12.35;1.30;;;;;;;19.02;37.88;100894.16;7399487;19;20338;-51
2024/01/31 09:56:17;;;;;;;;;;;;;;;18.40;38.54;100883.88;7396490;19;20011;-51
2024/01/31 09:58:43;;;;;;;0.40;0.40;;;;;;;18.77;38.47;100885.38;7393566;19;19934;-51
2024/01/31 10:01:11;;;;;;;1.00;0.55;;;;;;;18.78;38.24;100891.78;7395191;19;20209;-51
2024/01/31 10:03:37;;;;;;;0.68;0.65;;;;;;;19.01;38.13;100899.06;7395184;19;20090;-51
2024/01/31 10:06:05;;;;;;;5.57;1.83;;;;;;;19.12;37.66;100887.78;7395760;19;20471;-51
2024/01/31 10:08:31;;;;;;;0.73;0.65;;;;;;;18.08;38.95;100891.66;7395503;19;20022;-51
2024/01/31 10:10:57;;;;;;;0.50;0.50;;;;;;;18.86;37.82;100887.94;7393713;19;20014;-51
2024/01/31 10:13:23;;;;;;;0.50;0.50;;;;;;;18.73;38.33;100878.44;7394532;19;20628;-51
2024/01/31 10:15:49;;;;;;;0.35;0.35;;;;;;;18.76;38.56;100866.09;7397912;19;20023;-51
2024/01/31 10:18:15;;;;;;;0.30;0.30;;;;;;;17.69;39.77;100860.38;7395752;19;20018;-51
2024/01/31 10:20:44;;;;;;;1.30;0.68;;;;;;;17.27;40.54;100865.84;7395542;19;20026;-51
2024/01/31 10:23:14;;;;;;;1.20;0.90;;;;;;;20.56;37.46;100859.44;7394897;19;20493;-51
2024/01/31 10:25:40;;;;;;;3.80;0.63;;;;;;;25.66;31.02;100852.97;7397958;19;20021;-51
2024/01/31 10:28:07;;;;;;;0.20;0.20;;;;;;;26.20;30.30;100854.97;7395314;19;20011;-51
2024/01/31 10:30:48;;;;;;;1.20;0.70;;;;;;;26.29;29.95;100858.06;7399481;19;20011;-51
2024/01/31 10:33:15;;;;;;;2.50;1.10;;;;;;;26.23;29.63;100850.97;7393925;19;20014;-51
2024/01/31 10:35:43;;;;;;;4.60;1.33;;;;;;;21.35;34.34;100860.59;7397322;19;20042;-51
2024/01/31 10:38:13;;;;;;;10.80;3.03;;;;;;;21.87;33.43;100864.06;7393660;19;20026;-51
2024/01/31 10:40:41;;;;;;;11.50;3.50;;;;;;;21.07;34.81;100864.38;7392803;19;20201;-51
2024/01/31 10:43:08;;;;;;;20.08;2.90;;;;;;;21.29;34.78;100851.38;7392184;19;20011;-51
2024/01/31 10:45:35;;;;;;;7.40;2.28;;;;;;;20.86;35.23;100854.69;7395534;19;20007;-51
2024/01/31 10:48:02;;;;;;;13.02;2.08;;;;;;;22.26;34.16;100850.22;7394168;19;20011;-51
2024/01/31 10:50:30;;;;;;;3.35;1.30;;;;;;;22.63;33.96;100829.69;7392938;19;20059;-50
2024/01/31 10:52:58;;;;;;;3.05;1.05;;;;;;;21.26;35.45;100824.84;7392824;19;20019;-51
2024/01/31 10:55:25;;;;;;;1.35;1.10;;;;;;;21.55;35.23;100823.34;7396058;19;20014;-51
2024/01/31 10:57:53;;;;;;;2.67;0.95;;;;;;;20.76;36.87;100836.47;7392740;19;20074;-51
2024/01/31 11:00:30;;;;;;;5.22;0.70;;;;;;;20.85;36.50;100819.16;7391982;19;20014;-51
2024/01/31 11:02:57;;;;;;;4.05;0.90;;;;;;;20.84;36.80;100800.63;7393419;19;20339;-51
2024/01/31 11:05:29;;;;;;;1.08;0.77;;;;;;;20.83;37.00;100793.44;7391231;19;20018;-51
2024/01/31 11:07:55;;;;;;;0.45;0.45;;;;;;;20.86;37.10;100778.22;7396158;19;20015;-51
2024/01/31 11:10:22;;;;;;;1.83;0.88;;;;;;;20.92;36.89;100755.53;7395233;19;20007;-52
2024/01/31 11:13:04;;;;;;;8.07;1.00;;;;;;;21.06;36.68;100737.44;7400180;19;20006;-52
2024/01/31 11:15:32;;;;;;;0.20;0.20;;;;;;;20.98;36.36;100711.72;7399849;19;20037;-51
2024/01/31 11:18:12;;;;;;;0.20;0.20;;;;;;;21.29;36.25;100701.94;7399274;19;20022;-51
2024/01/31 11:20:51;;;;;;;0.77;0.57;;;;;;;22.22;34.91;100690.84;7404413;19;20026;-51
2024/01/31 11:23:20;;;;;;;1.15;0.55;;;;;;;23.17;34.45;100702.31;7399116;19;20018;-51
2024/01/31 11:25:46;;;;;;;0.15;0.15;;;;;;;23.11;33.76;100709.38;7399867;19;20066;-51